Time;durP1;ratioP1;P1;durP2;ratioP2;P2;SDS_P1;SDS_P2;PMS_P1;PMS_P2;Temp;Humidity;BMP_temperature;BMP_pressure;BME280_temperature;BME280_humidity;BME280_pressure;Samples;Min_cycle;Max_cycle;Signal;HPM_P1;HPM_P2
2023/09/19 00:01:31;;;;;;;;;;;19.90;99.90;;;;;;5055458;28;20350;-81
2023/09/19 00:03:58;;;;;;;;;;;19.90;99.90;;;;;;5064641;28;19928;-81
2023/09/19 00:06:26;;;;;;;;;;;19.80;99.90;;;;;;5064463;28;19989;-81
2023/09/19 00:08:54;;;;;;;;;;;19.90;99.90;;;;;;5062448;28;19936;-81
2023/09/19 00:11:21;;;;;;;;;;;19.80;99.90;;;;;;5061193;28;19932;-81
2023/09/19 00:13:49;;;;;;;;;;;19.80;99.90;;;;;;5065046;28;19928;-81
2023/09/19 00:16:19;;;;;;;;;;;19.80;99.90;;;;;;5053979;28;19924;-80
2023/09/19 00:18:46;;;;;;;;;;;19.80;99.90;;;;;;5059446;28;19931;-80
2023/09/19 00:21:12;;;;;;;;;;;19.70;99.90;;;;;;5048244;28;19933;-80
2023/09/19 00:23:41;;;;;;;;;;;19.60;99.90;;;;;;5059332;28;20338;-81
2023/09/19 00:26:07;;;;;;;;;;;19.60;99.90;;;;;;5061640;28;19967;-80
2023/09/19 00:28:35;;;;;;;;;;;19.60;99.90;;;;;;5065862;28;19931;-80
2023/09/19 00:31:02;;;;;;;;;;;19.50;99.90;;;;;;5059402;28;19947;-80
2023/09/19 00:33:29;;;;;;;;;;;19.50;99.90;;;;;;5061037;28;20015;-80
2023/09/19 00:35:57;;;;;;;;;;;19.40;99.90;;;;;;5069114;28;20398;-80
2023/09/19 00:38:26;;;;;;;;;;;19.50;99.90;;;;;;5063144;28;19931;-80
2023/09/19 00:40:53;;;;;;;;;;;19.50;99.90;;;;;;5055751;28;19972;-80
2023/09/19 00:43:24;;;;;;;;;;;19.40;99.90;;;;;;5049779;28;19928;-80
2023/09/19 00:45:53;;;;;;;;;;;19.50;99.90;;;;;;5058355;28;19925;-80
2023/09/19 00:48:24;;;;;;;;;;;19.50;99.90;;;;;;5061770;28;20028;-81
2023/09/19 00:50:53;;;;;;;;;;;19.50;99.90;;;;;;5070117;28;19928;-81
2023/09/19 00:53:22;;;;;;;;;;;19.50;99.90;;;;;;5061866;28;19925;-81
2023/09/19 00:55:49;;;;;;;;;;;19.40;99.90;;;;;;5056541;28;20054;-81
2023/09/19 00:58:16;;;;;;;;;;;19.50;99.90;;;;;;5052616;28;19943;-80
2023/09/19 01:00:44;;;;;;;;;;;19.40;99.90;;;;;;5061996;28;20430;-81
2023/09/19 01:03:13;;;;;;;;;;;19.40;99.90;;;;;;5061827;28;20015;-80
2023/09/19 01:05:40;;;;;;;;;;;19.40;99.90;;;;;;5070507;28;20403;-80
2023/09/19 01:08:07;;;;;;;;;;;19.40;99.90;;;;;;5063966;28;19933;-80
2023/09/19 01:10:33;;;;;;;;;;;19.40;99.90;;;;;;5055509;28;20479;-81
2023/09/19 01:13:21;;;;;;;;;;;19.40;99.90;;;;;;5068547;28;19970;-81
2023/09/19 01:15:54;;;;;;;;;;;19.50;99.90;;;;;;5058523;28;19925;-80
2023/09/19 01:18:28;;;;;;;;;;;19.50;99.90;;;;;;5056431;28;20320;-80
2023/09/19 01:21:00;;;;;;;;;;;19.50;99.90;;;;;;5065188;28;19931;-80
2023/09/19 01:23:47;;;;;;;;;;;19.50;99.90;;;;;;5061216;28;19948;-80
2023/09/19 01:26:19;;;;;;;;;;;19.50;99.90;;;;;;5057913;28;20380;-80
2023/09/19 01:28:57;;;;;;;;;;;19.50;99.90;;;;;;5049946;28;19924;-80
2023/09/19 01:31:24;;;;;;;;;;;19.50;99.90;;;;;;5059189;28;19924;-80
2023/09/19 01:34:03;;;;;;;;;;;19.50;99.90;;;;;;5059399;28;19925;-81
2023/09/19 01:36:36;;;;;;;;;;;19.50;99.90;;;;;;5062048;28;19925;-79
2023/09/19 01:39:08;;;;;;;;;;;19.50;99.90;;;;;;5060311;28;19936;-80
2023/09/19 01:42:00;;;;;;;;;;;19.50;99.90;;;;;;5057698;28;19925;-79
2023/09/19 01:44:39;;;;;;;;;;;19.50;99.90;;;;;;5059341;28;19929;-81
2023/09/19 01:47:13;;;;;;;;;;;19.50;99.90;;;;;;5059392;28;19932;-81
2023/09/19 01:49:46;;;;;;;;;;;19.40;99.90;;;;;;5064222;28;20342;-81
2023/09/19 01:52:13;;;;;;;;;;;19.50;99.90;;;;;;5061588;28;19932;-79
2023/09/19 01:54:49;;;;;;;;;;;19.50;99.90;;;;;;5055579;28;19925;-81
2023/09/19 01:57:15;;;;;;;;;;;19.50;99.90;;;;;;5061258;28;19963;-80
2023/09/19 01:59:45;;;;;;;;;;;19.60;99.90;;;;;;5065437;28;20011;-81
2023/09/19 02:02:12;;;;;;;;;;;19.50;99.90;;;;;;5056318;28;19991;-80
2023/09/19 02:04:39;;;;;;;;;;;19.50;99.90;;;;;;5063144;28;19924;-80
2023/09/19 02:07:06;;;;;;;;;;;19.50;99.90;;;;;;5063978;28;20503;-80
2023/09/19 02:09:35;;;;;;;;;;;19.50;99.90;;;;;;5057156;28;20454;-81
2023/09/19 02:12:03;;;;;;;;;;;19.50;99.90;;;;;;5063054;28;19974;-80
2023/09/19 02:14:30;;;;;;;;;;;19.50;99.90;;;;;;5065415;28;19970;-81
2023/09/19 02:16:57;;;;;;;;;;;19.50;99.90;;;;;;5060839;28;19928;-81
2023/09/19 02:19:24;;;;;;;;;;;19.50;99.90;;;;;;5059573;28;20011;-80
2023/09/19 02:21:50;;;;;;;;;;;19.50;99.90;;;;;;5062803;28;19968;-81
2023/09/19 02:24:17;;;;;;;;;;;19.50;99.90;;;;;;5060132;28;19971;-80
2023/09/19 02:26:44;;;;;;;;;;;19.40;99.90;;;;;;5059827;28;19968;-81
2023/09/19 02:29:12;;;;;;;;;;;19.40;99.90;;;;;;5067904;28;19987;-81
2023/09/19 02:31:39;;;;;;;;;;;19.40;99.90;;;;;;5061061;28;20002;-80
2023/09/19 02:34:06;;;;;;;;;;;19.50;99.90;;;;;;5058151;28;20346;-81
2023/09/19 02:36:33;;;;;;;;;;;19.40;99.90;;;;;;5065581;28;19960;-81
2023/09/19 02:39:00;;;;;;;;;;;19.40;99.90;;;;;;5060202;28;19979;-81
2023/09/19 02:41:29;;;;;;;;;;;19.40;99.90;;;;;;5053995;28;20038;-80
2023/09/19 02:43:56;;;;;;;;;;;19.40;99.90;;;;;;5064656;28;19954;-81
2023/09/19 02:46:23;;;;;;;;;;;19.40;99.90;;;;;;5062979;28;20350;-81
2023/09/19 02:48:50;;;;;;;;;;;19.40;99.90;;;;;;5055697;28;20376;-80
2023/09/19 02:51:16;;;;;;;;;;;19.30;99.90;;;;;;5066417;28;19971;-80
2023/09/19 02:53:43;;;;;;;;;;;19.30;99.90;;;;;;5043800;28;19978;-80
2023/09/19 02:56:11;;;;;;;;;;;19.30;99.90;;;;;;5053855;28;19925;-81
2023/09/19 02:58:39;;;;;;;;;;;19.30;99.90;;;;;;5066745;28;19932;-81
2023/09/19 03:01:11;;;;;;;;;;;19.30;99.90;;;;;;5046809;28;19924;-80
2023/09/19 03:03:39;;;;;;;;;;;19.30;99.90;;;;;;5050678;28;20019;-81
2023/09/19 03:06:08;;;;;;;;;;;19.30;99.90;;;;;;5065779;28;19932;-81
2023/09/19 03:08:36;;;;;;;;;;;19.20;99.90;;;;;;5058857;28;19924;-81
2023/09/19 03:11:03;;;;;;;;;;;19.20;99.90;;;;;;5054145;28;19928;-81
2023/09/19 03:13:31;;;;;;;;;;;19.10;99.90;;;;;;5060034;28;20366;-81
2023/09/19 03:15:58;;;;;;;;;;;19.10;99.90;;;;;;5062604;28;20478;-81
2023/09/19 03:18:26;;;;;;;;;;;19.10;99.90;;;;;;5052185;28;19925;-81
2023/09/19 03:20:54;;;;;;;;;;;19.00;99.90;;;;;;5061678;28;19936;-81
2023/09/19 03:23:21;;;;;;;;;;;19.00;99.90;;;;;;5063480;28;19932;-81
2023/09/19 03:25:48;;;;;;;;;;;19.00;99.90;;;;;;5053486;28;19925;-81
2023/09/19 03:28:16;;;;;;;;;;;19.00;99.90;;;;;;5065866;28;19930;-81
2023/09/19 03:30:42;;;;;;;;;;;19.00;99.90;;;;;;5045722;28;19925;-81
2023/09/19 03:33:11;;;;;;;;;;;19.00;99.90;;;;;;5061244;28;19926;-80
2023/09/19 03:35:39;;;;;;;;;;;19.00;99.90;;;;;;5071489;28;20284;-81
2023/09/19 03:38:06;;;;;;;;;;;19.10;99.90;;;;;;5064554;28;19977;-82
2023/09/19 03:40:33;;;;;;;;;;;19.00;99.90;;;;;;5058919;28;20392;-80
2023/09/19 03:43:02;;;;;;;;;;;19.10;99.90;;;;;;5064771;28;20388;-79
2023/09/19 03:45:29;;;;;;;;;;;19.10;99.90;;;;;;5062085;28;20016;-80
2023/09/19 03:47:55;;;;;;;;;;;19.10;99.90;;;;;;5038664;28;19925;-81
2023/09/19 03:50:22;;;;;;;;;;;19.00;99.90;;;;;;5058354;28;20368;-81
2023/09/19 03:52:49;;;;;;;;;;;19.10;99.90;;;;;;5065575;28;19931;-81
2023/09/19 03:55:15;;;;;;;;;;;19.00;99.90;;;;;;5059227;28;20171;-80
2023/09/19 03:57:42;;;;;;;;;;;18.90;99.90;;;;;;5061661;28;20315;-80
2023/09/19 04:00:11;;;;;;;;;;;19.00;99.90;;;;;;5065252;28;19932;-80
2023/09/19 04:02:39;;;;;;;;;;;18.90;99.90;;;;;;5060145;28;19929;-81
2023/09/19 04:05:06;;;;;;;;;;;19.00;99.90;;;;;;5059120;28;19944;-80
2023/09/19 04:07:34;;;;;;;;;;;18.90;99.90;;;;;;5070272;28;20285;-80
2023/09/19 04:10:01;;;;;;;;;;;18.90;99.90;;;;;;5063386;28;19925;-81
2023/09/19 04:12:28;;;;;;;;;;;18.90;99.90;;;;;;5065530;28;19928;-80
2023/09/19 04:14:54;;;;;;;;;;;18.90;99.90;;;;;;5063209;28;19933;-81
2023/09/19 04:17:21;;;;;;;;;;;18.80;99.90;;;;;;5064582;28;19947;-80
2023/09/19 04:19:48;;;;;;;;;;;18.80;99.90;;;;;;5054767;28;19929;-81
2023/09/19 04:22:15;;;;;;;;;;;18.90;99.90;;;;;;5063239;28;19939;-80
2023/09/19 04:24:41;;;;;;;;;;;18.80;99.90;;;;;;5065117;28;19925;-80
2023/09/19 04:27:09;;;;;;;;;;;18.80;99.90;;;;;;5044005;28;19957;-81
2023/09/19 04:29:37;;;;;;;;;;;18.80;99.90;;;;;;5069068;28;19935;-81
2023/09/19 04:32:05;;;;;;;;;;;18.80;99.90;;;;;;5063618;28;20003;-80
2023/09/19 04:34:34;;;;;;;;;;;18.80;99.90;;;;;;5057186;28;20001;-81
2023/09/19 04:37:02;;;;;;;;;;;18.80;99.90;;;;;;5074043;28;19925;-80
2023/09/19 04:39:28;;;;;;;;;;;18.80;99.90;;;;;;5067155;28;19951;-81
2023/09/19 04:41:55;;;;;;;;;;;18.70;99.90;;;;;;5058860;28;20320;-80
2023/09/19 04:44:22;;;;;;;;;;;18.80;99.90;;;;;;5067971;28;19931;-80
2023/09/19 04:46:48;;;;;;;;;;;18.80;99.90;;;;;;5063283;28;19925;-80
2023/09/19 04:49:15;;;;;;;;;;;18.80;99.90;;;;;;5056528;28;19924;-80
2023/09/19 04:51:42;;;;;;;;;;;18.80;99.90;;;;;;5068793;28;20295;-80
2023/09/19 04:54:09;;;;;;;;;;;18.70;99.90;;;;;;5047967;28;19925;-80
2023/09/19 04:56:35;;;;;;;;;;;18.70;99.90;;;;;;5059124;28;19943;-80
2023/09/19 04:59:02;;;;;;;;;;;18.70;99.90;;;;;;5062531;28;19925;-80
2023/09/19 05:01:29;;;;;;;;;;;18.60;99.90;;;;;;5066197;28;19925;-78
2023/09/19 05:03:56;;;;;;;;;;;18.50;99.90;;;;;;5054912;28;19924;-80
2023/09/19 05:06:23;;;;;;;;;;;18.50;99.90;;;;;;5066161;28;19978;-80
2023/09/19 05:08:51;;;;;;;;;;;18.50;99.90;;;;;;5067167;28;19971;-80
2023/09/19 05:11:18;;;;;;;;;;;18.50;99.90;;;;;;5056495;28;19932;-80
2023/09/19 05:13:45;;;;;;;;;;;18.50;99.90;;;;;;5062093;28;20374;-79
2023/09/19 05:16:12;;;;;;;;;;;18.50;99.90;;;;;;5066677;28;19928;-80
2023/09/19 05:18:39;;;;;;;;;;;18.50;99.90;;;;;;5060049;28;19925;-81
2023/09/19 05:21:06;;;;;;;;;;;18.50;99.90;;;;;;5067148;28;20326;-80
2023/09/19 05:23:32;;;;;;;;;;;18.50;99.90;;;;;;5069553;28;20343;-81
2023/09/19 05:25:59;;;;;;;;;;;18.50;99.90;;;;;;5062605;28;20439;-80
2023/09/19 05:28:26;;;;;;;;;;;18.50;99.90;;;;;;5065234;28;20019;-81
2023/09/19 05:30:53;;;;;;;;;;;18.50;99.90;;;;;;5068157;28;19924;-80
2023/09/19 05:33:20;;;;;;;;;;;18.50;99.90;;;;;;5057349;28;19925;-80
2023/09/19 05:35:49;;;;;;;;;;;18.60;99.90;;;;;;5062560;28;20299;-80
2023/09/19 05:38:18;;;;;;;;;;;18.60;99.90;;;;;;5070697;28;19928;-81
2023/09/19 05:40:45;;;;;;;;;;;18.60;99.90;;;;;;5060547;28;20399;-80
2023/09/19 05:43:14;;;;;;;;;;;18.60;99.90;;;;;;5053939;28;19935;-81
2023/09/19 05:45:41;;;;;;;;;;;18.60;99.90;;;;;;5068135;28;19931;-80
2023/09/19 05:48:13;;;;;;;;;;;18.60;99.90;;;;;;5059605;28;19971;-80
2023/09/19 05:50:40;;;;;;;;;;;18.60;99.90;;;;;;5064586;28;19924;-81
2023/09/19 05:53:06;;;;;;;;;;;18.60;99.90;;;;;;5067743;28;19931;-80
2023/09/19 05:55:33;;;;;;;;;;;18.50;99.90;;;;;;5061679;28;19995;-79
2023/09/19 05:58:00;;;;;;;;;;;18.60;99.90;;;;;;5044878;28;19944;-81
2023/09/19 06:00:31;;;;;;;;;;;18.70;99.90;;;;;;5068601;28;20384;-80
2023/09/19 06:02:58;;;;;;;;;;;18.60;99.90;;;;;;5060434;28;19935;-80
2023/09/19 06:05:32;;;;;;;;;;;18.70;99.90;;;;;;5055357;28;19936;-80
2023/09/19 06:08:07;;;;;;;;;;;18.70;99.90;;;;;;5065049;28;19960;-80
2023/09/19 06:10:34;;;;;;;;;;;18.70;99.90;;;;;;5062329;28;19976;-80
2023/09/19 06:13:05;;;;;;;;;;;18.70;99.90;;;;;;5053821;28;19932;-81
2023/09/19 06:15:33;;;;;;;;;;;18.70;99.90;;;;;;5070383;28;19971;-81
2023/09/19 06:18:02;;;;;;;;;;;18.70;99.90;;;;;;5062496;28;19967;-81
2023/09/19 06:20:29;;;;;;;;;;;18.70;99.90;;;;;;5058078;28;19924;-81
2023/09/19 06:22:56;;;;;;;;;;;18.70;99.90;;;;;;5062668;28;20035;-81
2023/09/19 06:25:23;;;;;;;;;;;18.70;99.90;;;;;;5061682;28;19924;-81
2023/09/19 06:27:53;;;;;;;;;;;18.70;99.90;;;;;;5045662;28;19925;-80
2023/09/19 06:30:21;;;;;;;;;;;18.70;99.90;;;;;;5069632;28;19928;-80
2023/09/19 06:32:48;;;;;;;;;;;18.80;99.90;;;;;;5061703;28;19994;-81
2023/09/19 06:35:15;;;;;;;;;;;18.70;99.90;;;;;;5055812;28;19933;-80
2023/09/19 06:37:43;;;;;;;;;;;18.80;99.90;;;;;;5061920;28;20303;-80
2023/09/19 06:40:13;;;;;;;;;;;18.80;99.90;;;;;;5062579;28;19924;-81
2023/09/19 06:42:45;;;;;;;;;;;18.80;99.90;;;;;;5051182;28;19994;-80
2023/09/19 06:45:18;;;;;;;;;;;18.80;99.90;;;;;;5050574;28;19931;-81
2023/09/19 06:47:49;;;;;;;;;;;18.90;99.90;;;;;;5062363;28;19929;-80
2023/09/19 06:50:18;;;;;;;;;;;18.90;99.90;;;;;;5056023;28;19961;-80
2023/09/19 06:52:47;;;;;;;;;;;18.90;99.90;;;;;;5062999;28;19935;-80
2023/09/19 06:55:16;;;;;;;;;;;18.90;99.90;;;;;;5062151;28;19925;-80
2023/09/19 06:57:45;;;;;;;;;;;18.90;99.90;;;;;;5053461;28;19956;-81
2023/09/19 07:00:15;;;;;;;;;;;18.80;99.90;;;;;;5067605;28;20475;-81
2023/09/19 07:02:42;;;;;;;;;;;18.80;99.90;;;;;;5061714;28;19924;-80
2023/09/19 07:05:09;;;;;;;;;;;18.70;99.90;;;;;;5056496;28;19969;-81
2023/09/19 07:07:36;;;;;;;;;;;18.80;99.90;;;;;;5061257;28;19961;-80
2023/09/19 07:10:08;;;;;;;;;;;18.90;99.90;;;;;;5060449;28;19924;-80
2023/09/19 07:12:35;;;;;;;;;;;18.90;99.90;;;;;;5053085;28;19974;-80
2023/09/19 07:15:02;;;;;;;;;;;18.90;99.90;;;;;;5065367;28;19928;-80
2023/09/19 07:17:29;;;;;;;;;;;18.90;99.90;;;;;;5064997;28;19925;-80
2023/09/19 07:19:57;;;;;;;;;;;18.90;99.90;;;;;;5054171;28;19955;-80
2023/09/19 07:22:26;;;;;;;;;;;18.90;99.90;;;;;;5059164;28;19924;-80
2023/09/19 07:24:53;;;;;;;;;;;19.00;99.90;;;;;;5063197;28;19978;-80
2023/09/19 07:27:19;;;;;;;;;;;19.00;99.90;;;;;;5036428;28;19987;-80
2023/09/19 07:29:46;;;;;;;;;;;19.20;99.90;;;;;;5064697;28;20414;-81
2023/09/19 07:32:17;;;;;;;;;;;19.20;99.90;;;;;;5047727;28;19970;-80
2023/09/19 07:34:45;;;;;;;;;;;19.30;99.90;;;;;;5057239;28;19925;-80
2023/09/19 07:37:13;;;;;;;;;;;19.30;99.90;;;;;;5055655;28;20478;-80
2023/09/19 07:39:41;;;;;;;;;;;19.30;99.90;;;;;;5065606;28;19974;-80
2023/09/19 07:42:08;;;;;;;;;;;19.40;99.90;;;;;;5054786;28;19932;-80
2023/09/19 07:44:38;;;;;;;;;;;19.40;99.90;;;;;;5057772;28;19985;-80
2023/09/19 07:47:04;;;;;;;;;;;19.40;99.90;;;;;;5064823;28;19925;-80
2023/09/19 07:49:31;;;;;;;;;;;19.40;99.90;;;;;;5058801;28;19947;-80
2023/09/19 07:51:58;;;;;;;;;;;19.40;99.90;;;;;;5056215;28;20466;-81
2023/09/19 07:54:26;;;;;;;;;;;19.40;99.90;;;;;;5065314;28;20345;-81
2023/09/19 07:56:53;;;;;;;;;;;19.50;99.90;;;;;;5057603;28;19970;-81
2023/09/19 07:59:20;;;;;;;;;;;19.40;99.90;;;;;;5059188;28;19924;-80
2023/09/19 08:01:47;;;;;;;;;;;19.40;99.90;;;;;;5065894;28;19924;-80
2023/09/19 08:04:14;;;;;;;;;;;19.40;99.90;;;;;;5057488;28;19986;-81
2023/09/19 08:06:41;;;;;;;;;;;19.40;99.90;;;;;;5056839;28;19963;-81
2023/09/19 08:09:10;;;;;;;;;;;19.40;99.90;;;;;;5065854;28;20407;-80
2023/09/19 08:11:37;;;;;;;;;;;19.40;99.90;;;;;;5058809;28;19925;-81
2023/09/19 08:14:05;;;;;;;;;;;19.50;99.90;;;;;;5054350;28;19964;-80
2023/09/19 08:16:32;;;;;;;;;;;19.50;99.90;;;;;;5066219;28;19925;-80
2023/09/19 08:18:59;;;;;;;;;;;19.50;99.90;;;;;;5058590;28;19960;-80
2023/09/19 08:21:29;;;;;;;;;;;19.40;99.90;;;;;;5050913;28;19972;-81
2023/09/19 08:23:56;;;;;;;;;;;19.50;99.90;;;;;;5066092;28;19972;-81
2023/09/19 08:26:24;;;;;;;;;;;19.60;99.90;;;;;;5059019;28;19970;-81
2023/09/19 08:28:51;;;;;;;;;;;19.60;99.90;;;;;;5055112;28;19924;-80
2023/09/19 08:31:18;;;;;;;;;;;19.60;99.90;;;;;;5064639;28;19931;-79
2023/09/19 08:33:51;;;;;;;;;;;19.70;99.90;;;;;;5055870;28;19925;-81
2023/09/19 08:36:17;;;;;;;;;;;19.80;99.90;;;;;;5052171;28;20430;-81
2023/09/19 08:38:44;;;;;;;;;;;19.90;99.90;;;;;;5068395;28;19931;-81
2023/09/19 08:41:12;;;;;;;;;;;19.90;99.90;;;;;;5060353;28;19931;-81
2023/09/19 08:43:39;;;;;;;;;;;20.00;99.90;;;;;;5055868;28;19971;-80
2023/09/19 08:46:14;;;;;;;;;;;20.00;99.90;;;;;;5062824;28;19951;-81
2023/09/19 08:49:07;;;;;;;;;;;20.00;99.90;;;;;;5037699;28;19924;-80
2023/09/19 08:51:45;;;;;;;;;;;20.00;99.90;;;;;;5053863;28;19928;-81
2023/09/19 08:54:23;;;;;;;;;;;20.10;99.90;;;;;;5064937;28;19925;-79
2023/09/19 08:56:50;;;;;;;;;;;20.10;99.90;;;;;;5062654;28;19925;-80
2023/09/19 08:59:18;;;;;;;;;;;20.10;99.90;;;;;;5059071;28;19979;-80
2023/09/19 09:01:46;;;;;;;;;;;20.20;99.90;;;;;;5067950;28;19924;-80
2023/09/19 09:04:13;;;;;;;;;;;20.30;99.90;;;;;;5059851;28;19935;-81
2023/09/19 09:06:43;;;;;;;;;;;20.30;99.90;;;;;;5056038;28;19925;-81
2023/09/19 09:09:10;;;;;;;;;;;20.40;99.90;;;;;;5070163;28;20303;-80
2023/09/19 09:11:39;;;;;;;;;;;20.40;99.90;;;;;;5067185;28;19932;-78
2023/09/19 09:14:09;;;;;;;;;;;20.40;99.90;;;;;;5059709;28;19974;-81
2023/09/19 09:16:36;;;;;;;;;;;20.40;99.90;;;;;;5068623;28;19928;-81
2023/09/19 09:19:04;;;;;;;;;;;20.40;99.90;;;;;;5053876;28;19929;-81
2023/09/19 09:21:35;;;;;;;;;;;20.40;99.90;;;;;;5056771;28;19972;-81
2023/09/19 09:24:21;;;;;;;;;;;20.40;99.90;;;;;;5071285;28;19925;-80
2023/09/19 09:26:49;;;;;;;;;;;20.40;99.90;;;;;;5064070;28;20424;-81
2023/09/19 09:29:16;;;;;;;;;;;20.40;99.90;;;;;;5055066;28;19929;-81
2023/09/19 09:31:48;;;;;;;;;;;20.40;99.90;;;;;;5064714;28;19994;-81
2023/09/19 09:34:15;;;;;;;;;;;20.30;99.90;;;;;;5061662;28;19931;-79
2023/09/19 09:36:48;;;;;;;;;;;20.30;99.90;;;;;;5055909;28;20007;-79
2023/09/19 09:39:18;;;;;;;;;;;20.40;99.90;;;;;;5068571;28;20460;-79
2023/09/19 09:41:45;;;;;;;;;;;20.40;99.90;;;;;;5063484;28;19975;-82
2023/09/19 09:44:15;;;;;;;;;;;20.40;99.90;;;;;;5055528;28;19963;-79
2023/09/19 09:49:31;;;;;;;;;;;20.40;99.90;;;;;;5061165;28;19924;-81
2023/09/19 09:52:07;;;;;;;;;;;20.40;99.90;;;;;;5055766;28;20260;-81
2023/09/19 09:54:37;;;;;;;;;;;20.40;99.90;;;;;;5065786;28;19939;-80
2023/09/19 09:57:13;;;;;;;;;;;20.40;99.90;;;;;;5062749;28;19932;-81
2023/09/19 09:59:47;;;;;;;;;;;20.50;99.90;;;;;;5048828;28;20463;-81
2023/09/19 10:02:20;;;;;;;;;;;20.50;99.90;;;;;;5066473;28;19967;-81
2023/09/19 10:05:07;;;;;;;;;;;20.60;99.90;;;;;;5058850;28;19952;-80
2023/09/19 10:07:37;;;;;;;;;;;20.70;99.90;;;;;;5059714;28;20384;-79
2023/09/19 10:10:16;;;;;;;;;;;20.90;99.90;;;;;;5064475;28;20414;-81
2023/09/19 10:12:45;;;;;;;;;;;21.00;99.90;;;;;;5061449;28;19947;-81
2023/09/19 10:15:16;;;;;;;;;;;21.10;99.90;;;;;;5056836;28;19928;-80
2023/09/19 10:17:44;;;;;;;;;;;21.20;99.90;;;;;;5067125;28;19976;-80
2023/09/19 10:20:27;;;;;;;;;;;21.30;99.90;;;;;;5056288;28;19932;-79
2023/09/19 10:22:57;;;;;;;;;;;21.40;99.90;;;;;;5045288;28;19925;-81
2023/09/19 10:25:31;;;;;;;;;;;21.40;99.90;;;;;;5066577;28;19983;-81
2023/09/19 10:28:02;;;;;;;;;;;21.40;99.90;;;;;;5059575;28;20400;-81
2023/09/19 10:30:30;;;;;;;;;;;21.40;99.90;;;;;;5053892;28;20019;-81
2023/09/19 10:33:01;;;;;;;;;;;21.40;99.90;;;;;;5069430;28;20396;-81
2023/09/19 10:35:29;;;;;;;;;;;21.30;99.90;;;;;;5059385;28;19925;-80
2023/09/19 10:38:03;;;;;;;;;;;21.20;99.90;;;;;;5063542;28;19929;-81
2023/09/19 10:40:32;;;;;;;;;;;21.10;99.90;;;;;;5057228;28;19931;-81
2023/09/19 10:43:06;;;;;;;;;;;21.00;99.90;;;;;;5062343;28;19925;-81
2023/09/19 10:45:38;;;;;;;;;;;21.00;99.90;;;;;;5055446;28;20453;-80
2023/09/19 10:48:07;;;;;;;;;;;21.00;99.90;;;;;;5069419;28;19924;-81
2023/09/19 10:50:36;;;;;;;;;;;21.00;99.90;;;;;;5060646;28;20007;-80
2023/09/19 10:53:06;;;;;;;;;;;21.00;99.90;;;;;;5061675;28;19924;-81
2023/09/19 10:55:35;;;;;;;;;;;21.00;99.90;;;;;;5057042;28;19978;-81
2023/09/19 10:58:10;;;;;;;;;;;21.00;99.90;;;;;;5059007;28;19948;-82
2023/09/19 11:00:56;;;;;;;;;;;21.00;99.90;;;;;;5056519;28;19928;-81
2023/09/19 11:03:23;;;;;;;;;;;21.10;99.90;;;;;;5047297;28;20407;-82
2023/09/19 11:06:00;;;;;;;;;;;21.10;99.90;;;;;;5042382;28;20008;-81
2023/09/19 11:08:27;;;;;;;;;;;21.20;99.90;;;;;;5053852;28;19987;-82
2023/09/19 11:10:54;;;;;;;;;;;21.20;99.90;;;;;;5058099;28;19928;-82
2023/09/19 11:13:25;;;;;;;;;;;21.30;99.90;;;;;;5058836;28;19925;-81
2023/09/19 11:15:58;;;;;;;;;;;21.30;99.90;;;;;;5053469;28;19924;-81
2023/09/19 11:18:40;;;;;;;;;;;21.30;99.90;;;;;;5066361;28;19938;-81
2023/09/19 11:21:29;;;;;;;;;;;21.30;99.90;;;;;;5062037;28;19933;-82
2023/09/19 11:24:17;;;;;;;;;;;21.40;99.90;;;;;;5060182;28;19978;-81
2023/09/19 11:26:47;;;;;;;;;;;21.40;99.90;;;;;;5063670;28;19924;-82
2023/09/19 11:29:24;;;;;;;;;;;21.40;99.90;;;;;;5054786;28;19929;-82
2023/09/19 11:31:53;;;;;;;;;;;21.40;99.90;;;;;;5062226;28;19978;-81
2023/09/19 11:34:47;;;;;;;;;;;21.40;99.90;;;;;;5065815;28;19925;-82
2023/09/19 11:37:15;;;;;;;;;;;21.40;99.90;;;;;;5032668;28;21542;-81
2023/09/19 11:40:01;;;;;;;;;;;21.50;99.90;;;;;;5063591;28;19925;-81
2023/09/19 11:42:53;;;;;;;;;;;21.50;99.90;;;;;;5060903;28;19928;-81
2023/09/19 11:45:49;;;;;;;;;;;21.50;99.90;;;;;;5052555;28;19925;-82
2023/09/19 11:48:18;;;;;;;;;;;21.60;99.90;;;;;;5067795;28;19928;-82
2023/09/19 11:50:47;;;;;;;;;;;21.70;99.90;;;;;;5062334;28;19925;-81
2023/09/19 11:53:15;;;;;;;;;;;21.80;99.90;;;;;;5053147;28;20384;-82
2023/09/19 11:55:43;;;;;;;;;;;22.00;99.90;;;;;;5066089;28;19964;-82
2023/09/19 11:58:11;;;;;;;;;;;22.10;99.90;;;;;;5059418;28;20346;-81
2023/09/19 12:00:39;;;;;;;;;;;22.30;99.90;;;;;;5057108;28;19954;-81
2023/09/19 12:03:10;;;;;;;;;;;22.50;99.90;;;;;;5069199;28;19928;-82
2023/09/19 12:05:38;;;;;;;;;;;22.60;99.90;;;;;;5039711;28;20016;-81
2023/09/19 12:08:08;;;;;;;;;;;22.70;99.90;;;;;;5055765;28;19971;-82
2023/09/19 12:10:47;;;;;;;;;;;22.80;99.90;;;;;;5065255;28;19925;-81
2023/09/19 12:13:17;;;;;;;;;;;22.90;99.90;;;;;;5061258;28;19935;-81
2023/09/19 12:15:47;;;;;;;;;;;22.90;99.90;;;;;;5059730;28;19924;-82
2023/09/19 12:18:30;;;;;;;;;;;22.70;99.90;;;;;;5063325;28;20392;-81
2023/09/19 12:21:02;;;;;;;;;;;22.70;99.90;;;;;;5061614;28;19934;-82
2023/09/19 12:23:29;;;;;;;;;;;22.60;99.90;;;;;;5053508;28;19963;-81
2023/09/19 12:25:59;;;;;;;;;;;22.50;99.90;;;;;;5067663;28;19939;-81
2023/09/19 12:28:26;;;;;;;;;;;22.40;99.90;;;;;;5062581;28;19925;-81
2023/09/19 12:30:55;;;;;;;;;;;22.40;99.90;;;;;;5056414;28;19925;-82
2023/09/19 12:33:25;;;;;;;;;;;22.40;99.90;;;;;;5067693;28;19929;-82
2023/09/19 12:35:55;;;;;;;;;;;22.40;99.90;;;;;;5062704;28;19940;-81
2023/09/19 12:38:24;;;;;;;;;;;22.30;99.90;;;;;;5055114;28;20340;-81
2023/09/19 12:40:51;;;;;;;;;;;22.30;99.90;;;;;;5039813;28;19924;-81
2023/09/19 12:43:18;;;;;;;;;;;22.30;99.90;;;;;;5063334;28;20010;-81
2023/09/19 12:45:47;;;;;;;;;;;22.30;99.90;;;;;;5041070;28;19924;-81
2023/09/19 12:48:20;;;;;;;;;;;22.30;99.90;;;;;;5068023;28;19931;-81
2023/09/19 12:51:05;;;;;;;;;;;22.30;99.90;;;;;;5064831;28;19929;-81
2023/09/19 12:53:33;;;;;;;;;;;22.30;99.90;;;;;;5053706;28;19924;-82
2023/09/19 12:56:00;;;;;;;;;;;22.30;99.90;;;;;;5072673;28;19964;-82
2023/09/19 12:58:30;;;;;;;;;;;22.30;99.90;;;;;;5065964;28;19933;-82
2023/09/19 13:00:57;;;;;;;;;;;22.40;99.90;;;;;;5060577;28;20296;-81
2023/09/19 13:03:28;;;;;;;;;;;22.40;99.90;;;;;;5065603;28;19925;-81
2023/09/19 13:05:57;;;;;;;;;;;22.40;99.90;;;;;;5066210;28;19925;-82
2023/09/19 13:08:32;;;;;;;;;;;22.50;99.90;;;;;;5053741;28;20299;-81
2023/09/19 13:10:59;;;;;;;;;;;22.50;99.90;;;;;;5067248;28;19946;-81
2023/09/19 13:13:27;;;;;;;;;;;22.60;99.90;;;;;;5066651;28;19974;-82
2023/09/19 13:15:57;;;;;;;;;;;22.60;99.90;;;;;;5056712;28;19978;-81
2023/09/19 13:18:25;;;;;;;;;;;22.60;99.90;;;;;;5065577;28;19952;-82
2023/09/19 13:21:15;;;;;;;;;;;22.60;99.90;;;;;;5065745;28;20027;-81
2023/09/19 13:23:43;;;;;;;;;;;22.60;99.90;;;;;;5056055;28;19980;-81
2023/09/19 13:26:10;;;;;;;;;;;22.60;99.90;;;;;;5070033;28;20415;-81
2023/09/19 13:28:40;;;;;;;;;;;22.60;99.90;;;;;;5064171;28;20139;-82
2023/09/19 13:31:07;;;;;;;;;;;22.60;99.90;;;;;;5054833;28;20362;-82
2023/09/19 13:33:33;;;;;;;;;;;22.70;99.90;;;;;;5064502;28;20012;-81
2023/09/19 13:36:00;;;;;;;;;;;22.70;99.90;;;;;;5064379;28;20371;-82
2023/09/19 13:38:27;;;;;;;;;;;22.70;99.90;;;;;;5058620;28;19925;-82
2023/09/19 13:40:53;;;;;;;;;;;22.70;99.90;;;;;;5066958;28;20004;-81
2023/09/19 13:43:22;;;;;;;;;;;22.70;99.90;;;;;;5067416;28;19980;-82
2023/09/19 13:45:49;;;;;;;;;;;22.70;99.90;;;;;;5056981;28;19932;-81
2023/09/19 13:48:20;;;;;;;;;;;22.70;99.90;;;;;;5066818;28;19924;-82
2023/09/19 13:50:46;;;;;;;;;;;22.70;99.90;;;;;;5061871;28;19925;-81
2023/09/19 13:53:13;;;;;;;;;;;22.70;99.90;;;;;;5057946;28;20029;-81
2023/09/19 13:55:41;;;;;;;;;;;22.70;99.90;;;;;;5063087;28;20372;-81
2023/09/19 13:58:10;;;;;;;;;;;22.70;99.90;;;;;;5066769;28;19968;-82
2023/09/19 14:00:38;;;;;;;;;;;22.70;99.90;;;;;;5056730;28;19928;-81
2023/09/19 14:03:05;;;;;;;;;;;22.70;99.90;;;;;;5064480;28;19924;-81
2023/09/19 14:05:32;;;;;;;;;;;22.70;99.90;;;;;;5063606;28;19933;-81
2023/09/19 14:07:59;;;;;;;;;;;22.70;99.90;;;;;;5055818;28;19924;-82
2023/09/19 14:10:27;;;;;;;;;;;22.70;99.90;;;;;;5061217;28;19978;-82
2023/09/19 14:12:54;;;;;;;;;;;22.70;99.90;;;;;;5066199;28;19975;-82
2023/09/19 14:15:29;;;;;;;;;;;22.60;99.90;;;;;;5059600;28;19955;-81
2023/09/19 14:17:56;;;;;;;;;;;22.60;99.90;;;;;;5060473;28;19983;-80
2023/09/19 14:20:23;;;;;;;;;;;22.60;99.90;;;;;;5068203;28;20414;-82
2023/09/19 14:22:50;;;;;;;;;;;22.60;99.90;;;;;;5060289;28;19928;-81
2023/09/19 14:25:17;;;;;;;;;;;22.60;99.90;;;;;;5063674;28;19928;-82
2023/09/19 14:27:43;;;;;;;;;;;22.60;99.90;;;;;;5065066;28;19925;-81
2023/09/19 14:30:10;;;;;;;;;;;22.60;99.90;;;;;;5063077;28;19925;-81
2023/09/19 14:32:37;;;;;;;;;;;22.60;99.90;;;;;;5057895;28;19929;-81